Time;durP1;ratioP1;P1;durP2;ratioP2;P2;SDS_P1;SDS_P2;PMS_P1;PMS_P2;Temp;Humidity;BMP_temperature;BMP_pressure;BME280_temperature;BME280_humidity;BME280_pressure;Samples;Min_cycle;Max_cycle;Signal;HPM_P1;HPM_P2
2022/10/28 00:02:19;;;;;;;9.05;4.70;;;;;;;14.36;87.75;101662.06;5071399;28;20383;-79
2022/10/28 00:04:44;;;;;;;9.30;4.65;;;;;;;14.33;87.89;101662.16;5072087;28;20074;-79
2022/10/28 00:07:09;;;;;;;8.75;4.82;;;;;;;14.30;88.17;101661.38;5071858;28;20025;-79
2022/10/28 00:09:34;;;;;;;8.60;4.53;;;;;;;14.28;88.20;101671.91;5072089;28;20028;-79
2022/10/28 00:12:00;;;;;;;8.00;4.47;;;;;;;14.25;87.57;101659.75;5070479;28;20048;-79
2022/10/28 00:14:25;;;;;;;6.63;4.40;;;;;;;14.22;86.79;101669.44;5073411;28;20507;-79
2022/10/28 00:16:51;;;;;;;12.32;4.78;;;;;;;14.21;87.58;101670.34;5088290;28;20024;-79
2022/10/28 00:19:16;;;;;;;8.15;4.00;;;;;;;14.16;86.70;101673.09;5083382;28;20031;-79
2022/10/28 00:21:43;;;;;;;7.55;4.40;;;;;;;14.13;87.43;101669.72;5086720;28;20051;-78
2022/10/28 00:24:10;;;;;;;7.28;4.25;;;;;;;14.08;86.75;101668.06;5075350;28;20025;-79
2022/10/28 00:26:37;;;;;;;7.38;4.40;;;;;;;14.03;86.86;101667.31;5075366;28;20081;-79
2022/10/28 00:29:05;;;;;;;10.48;4.75;;;;;;;14.00;87.20;101667.44;5075608;28;20111;-79
2022/10/28 00:31:32;;;;;;;8.95;4.65;;;;;;;13.96;87.07;101666.63;5073050;28;20395;-79
2022/10/28 00:33:59;;;;;;;7.35;5.07;;;;;;;13.92;87.70;101657.13;5072869;28;20028;-79
2022/10/28 00:36:27;;;;;;;9.40;5.10;;;;;;;13.92;88.05;101658.91;5075077;28;20029;-78
2022/10/28 00:38:57;;;;;;;9.43;5.47;;;;;;;13.89;88.40;101664.22;5075141;28;20024;-79
2022/10/28 00:41:35;;;;;;;11.77;5.45;;;;;;;13.86;88.62;101665.16;5075121;28;20426;-78
2022/10/28 00:44:20;;;;;;;8.60;5.20;;;;;;;13.82;88.56;101663.53;5076878;28;20051;-79
2022/10/28 00:46:48;;;;;;;8.80;5.32;;;;;;;13.82;88.65;101658.31;5095225;28;20467;-79
2022/10/28 00:49:19;;;;;;;11.68;5.70;;;;;;;13.81;89.03;101661.81;5095236;28;20016;-79
2022/10/28 00:51:47;;;;;;;9.75;5.70;;;;;;;13.79;89.33;101655.75;5095262;28;20024;-79
2022/10/28 00:54:13;;;;;;;10.90;5.03;;;;;;;13.77;89.09;101661.03;5075745;28;20036;-79
2022/10/28 00:56:43;;;;;;;11.23;5.88;;;;;;;13.74;89.24;101650.66;5072538;28;20024;-79
2022/10/28 00:59:15;;;;;;;12.68;5.72;;;;;;;13.74;89.48;101655.88;5073949;28;20040;-79
2022/10/28 01:01:40;;;;;;;10.63;5.93;;;;;;;13.71;89.46;101642.88;5076381;28;20024;-79
2022/10/28 01:04:07;;;;;;;13.70;5.88;;;;;;;13.70;89.21;101645.56;5092971;28;20165;-79
2022/10/28 01:06:35;;;;;;;11.15;5.80;;;;;;;13.69;89.67;101642.06;5094820;28;20093;-79
2022/10/28 01:09:00;;;;;;;9.88;5.40;;;;;;;13.68;89.83;101629.88;5094859;28;20024;-79
2022/10/28 01:11:31;;;;;;;10.50;5.32;;;;;;;13.68;89.81;101635.13;5080766;28;20500;-78
2022/10/28 01:14:35;;;;;;;10.93;5.40;;;;;;;13.67;89.82;101620.31;5086232;28;20043;-78
2022/10/28 01:17:12;;;;;;;8.18;5.57;;;;;;;13.67;89.82;101617.72;5062460;28;20127;-78
2022/10/28 01:20:15;;;;;;;11.77;5.75;;;;;;;13.65;89.43;101614.31;5093960;28;20031;-79
2022/10/28 01:22:57;;;;;;;12.15;5.35;;;;;;;13.60;87.99;101608.31;5059256;28;20032;-79
2022/10/28 01:25:58;;;;;;;8.25;4.97;;;;;;;13.53;87.16;101602.41;5073202;28;20025;-79
2022/10/28 01:29:01;;;;;;;10.75;4.43;;;;;;;13.48;86.94;101607.75;5072587;28;20089;-79
2022/10/28 01:31:52;;;;;;;10.02;4.97;;;;;;;13.43;87.24;101612.22;5074158;28;20534;-79
2022/10/28 01:34:30;;;;;;;9.13;4.97;;;;;;;13.41;88.21;101606.19;5072450;28;20032;-79
2022/10/28 01:37:07;;;;;;;11.75;4.80;;;;;;;13.42;89.07;101610.50;5074155;28;20116;-79
2022/10/28 01:40:01;;;;;;;10.75;4.82;;;;;;;13.43;88.73;101612.22;5054190;28;20083;-79
2022/10/28 01:42:51;;;;;;;12.88;5.35;;;;;;;13.41;88.58;101611.41;5057399;28;20411;-79
2022/10/28 01:45:33;;;;;;;11.32;4.93;;;;;;;13.41;88.69;101611.41;5053892;28;20036;-79
2022/10/28 01:48:19;;;;;;;10.73;5.53;;;;;;;13.38;88.62;101608.84;5059476;28;20033;-79
2022/10/28 01:51:06;;;;;;;8.77;5.38;;;;;;;13.35;88.37;101601.94;5073062;28;20036;-79
2022/10/28 01:53:37;;;;;;;7.97;4.40;;;;;;;13.28;88.04;101599.53;5072999;28;20464;-79
2022/10/28 01:56:08;;;;;;;9.57;4.78;;;;;;;13.21;87.66;101606.66;5070683;28;20170;-79
2022/10/28 01:58:36;;;;;;;9.20;4.88;;;;;;;13.16;87.45;101605.91;5063056;28;20024;-79
2022/10/28 02:01:04;;;;;;;8.35;4.82;;;;;;;13.10;87.59;101604.28;5075915;28;20024;-79
2022/10/28 02:03:29;;;;;;;10.85;4.57;;;;;;;13.06;87.22;101602.66;5073614;28;20072;-79
2022/10/28 02:05:59;;;;;;;13.70;5.28;;;;;;;13.02;87.20;101603.59;5072094;28;20232;-79
2022/10/28 02:09:05;;;;;;;9.20;4.80;;;;;;;12.99;87.54;101606.28;5071873;28;20565;-79
2022/10/28 02:11:53;;;;;;;7.72;4.70;;;;;;;12.97;87.93;101600.28;5088571;28;20043;-79
2022/10/28 02:14:42;;;;;;;10.43;4.78;;;;;;;12.96;89.10;101598.56;5071963;28;20036;-79
2022/10/28 02:17:26;;;;;;;10.43;4.70;;;;;;;12.97;89.26;101601.13;5072282;28;20027;-79
2022/10/28 02:20:01;;;;;;;13.57;5.63;;;;;;;12.98;89.62;101602.00;5087049;28;20043;-78
2022/10/28 02:22:55;;;;;;;9.27;5.10;;;;;;;12.95;89.06;101602.06;5090144;28;20043;-78
2022/10/28 02:25:53;;;;;;;9.82;4.93;;;;;;;12.96;89.24;101599.41;5090323;28;20413;-78
2022/10/28 02:28:31;;;;;;;8.95;5.00;;;;;;;12.95;89.66;101596.84;5036070;28;20025;-79
2022/10/28 02:31:04;;;;;;;9.45;4.95;;;;;;;12.95;89.90;101596.84;5064648;28;20107;-79
2022/10/28 02:33:35;;;;;;;11.30;5.20;;;;;;;12.94;89.38;101605.56;5076361;28;20073;-79
2022/10/28 02:36:05;;;;;;;7.43;4.75;;;;;;;12.94;89.56;101600.34;5082548;28;20111;-79
2022/10/28 02:38:36;;;;;;;6.82;4.53;;;;;;;12.93;89.61;101598.63;5074702;28;20373;-79
2022/10/28 02:41:11;;;;;;;11.43;5.00;;;;;;;12.93;89.54;101598.63;5086004;28;20154;-79
2022/10/28 02:43:38;;;;;;;7.72;5.10;;;;;;;12.92;89.57;101589.91;5075587;28;20410;-79
2022/10/28 02:46:05;;;;;;;10.43;5.30;;;;;;;12.90;89.75;101594.31;5092845;28;20023;-79
2022/10/28 02:48:38;;;;;;;11.32;5.30;;;;;;;12.89;89.92;101590.84;5089110;28;20491;-79
2022/10/28 02:51:10;;;;;;;12.10;5.43;;;;;;;12.89;89.96;101588.22;5068841;28;20054;-79
2022/10/28 02:53:46;;;;;;;9.88;5.00;;;;;;;12.88;89.94;101591.75;5072316;28;20032;-79
2022/10/28 02:56:15;;;;;;;10.55;5.47;;;;;;;12.86;89.77;101590.91;5091142;28;20107;-78
2022/10/28 02:58:40;;;;;;;10.23;5.20;;;;;;;12.83;89.66;101583.16;5085574;28;20074;-79
2022/10/28 03:01:06;;;;;;;10.55;5.13;;;;;;;12.80;89.82;101583.25;5082108;28;20036;-79
2022/10/28 03:03:31;;;;;;;9.30;4.97;;;;;;;12.77;89.59;101585.03;5081987;28;20035;-79
2022/10/28 03:05:57;;;;;;;8.13;4.68;;;;;;;12.74;89.04;101585.97;5076099;28;20128;-79
2022/10/28 03:08:24;;;;;;;8.30;4.20;;;;;;;12.70;89.03;101586.94;5072702;28;20021;-79
2022/10/28 03:10:49;;;;;;;12.43;5.00;;;;;;;12.65;88.89;101583.56;5071483;28;20450;-79
2022/10/28 03:13:14;;;;;;;9.40;4.65;;;;;;;12.61;89.01;101582.78;5070166;28;20029;-79
2022/10/28 03:15:40;;;;;;;14.77;4.88;;;;;;;12.58;89.00;101578.50;5084209;28;20101;-79
2022/10/28 03:18:05;;;;;;;13.57;5.30;;;;;;;12.56;88.89;101580.28;5079834;28;20093;-79
2022/10/28 03:20:30;;;;;;;8.48;4.80;;;;;;;12.51;88.76;101587.34;5056089;28;20035;-79
2022/10/28 03:22:56;;;;;;;10.07;4.70;;;;;;;12.48;87.88;101587.41;5074294;28;20054;-79
2022/10/28 03:25:21;;;;;;;8.20;4.38;;;;;;;12.47;88.31;101575.25;5083802;28;20420;-79
2022/10/28 03:27:46;;;;;;;5.72;4.07;;;;;;;12.42;87.87;101585.78;5075306;28;20028;-79
2022/10/28 03:30:13;;;;;;;8.40;4.10;;;;;;;12.39;87.64;101585.00;5061557;28;20029;-79
2022/10/28 03:32:40;;;;;;;9.30;4.05;;;;;;;12.36;87.40;101587.69;5072073;28;20082;-78
2022/10/28 03:35:06;;;;;;;7.88;3.92;;;;;;;12.34;87.00;101572.06;5073428;28;20029;-78
2022/10/28 03:37:31;;;;;;;7.00;3.67;;;;;;;12.31;85.82;101579.97;5069920;28;20039;-79
2022/10/28 03:40:00;;;;;;;9.40;3.85;;;;;;;12.29;86.02;101586.94;5072317;28;20052;-79
2022/10/28 03:42:25;;;;;;;6.43;3.67;;;;;;;12.28;87.42;101583.50;5074488;28;20115;-78
2022/10/28 03:44:50;;;;;;;8.15;4.20;;;;;;;12.30;88.02;101583.44;5077208;28;20539;-78
2022/10/28 03:47:15;;;;;;;9.88;4.32;;;;;;;12.30;88.47;101586.06;5068263;28;20028;-79
2022/10/28 03:49:41;;;;;;;7.93;4.07;;;;;;;12.30;88.43;101581.69;5080826;28;20051;-79
2022/10/28 03:52:06;;;;;;;7.70;4.03;;;;;;;12.29;88.40;101585.22;5074008;28;20025;-79
2022/10/28 03:54:31;;;;;;;9.65;4.18;;;;;;;12.27;88.75;101578.28;5078381;28;20036;-79
2022/10/28 03:56:56;;;;;;;10.43;4.30;;;;;;;12.26;88.61;101582.66;5088981;28;20023;-79
2022/10/28 03:59:22;;;;;;;9.63;4.30;;;;;;;12.25;89.01;101580.94;5077302;28;20491;-79
2022/10/28 04:01:47;;;;;;;9.77;4.22;;;;;;;12.23;89.47;101577.50;5082264;28;20051;-79
2022/10/28 04:04:13;;;;;;;12.00;4.55;;;;;;;12.24;89.66;101578.34;5091690;28;20023;-79
2022/10/28 04:06:40;;;;;;;10.02;4.60;;;;;;;12.25;89.60;101569.63;5085918;28;20027;-79
2022/10/28 04:09:06;;;;;;;10.32;4.20;;;;;;;12.23;89.08;101577.50;5075435;28;20545;-79
2022/10/28 04:11:31;;;;;;;12.70;5.20;;;;;;;12.22;89.52;101573.19;5082342;28;20048;-79
2022/10/28 04:13:56;;;;;;;12.35;4.60;;;;;;;12.21;89.42;101573.22;5065554;28;20036;-78
2022/10/28 04:16:22;;;;;;;9.02;4.10;;;;;;;12.20;88.72;101571.50;5074202;28;20410;-78
2022/10/28 04:18:47;;;;;;;9.93;4.28;;;;;;;12.17;88.89;101572.41;5079865;28;20032;-79
2022/10/28 04:21:12;;;;;;;8.82;4.18;;;;;;;12.14;88.22;101575.06;5076272;28;20036;-79
2022/10/28 04:23:37;;;;;;;7.85;4.07;;;;;;;12.11;87.79;101577.78;5078898;28;20082;-79
2022/10/28 04:26:03;;;;;;;8.55;3.92;;;;;;;12.09;87.87;101579.53;5076849;28;20020;-79
2022/10/28 04:28:29;;;;;;;11.02;4.22;;;;;;;12.12;89.16;101579.50;5080398;28;20444;-79
2022/10/28 04:30:54;;;;;;;8.30;4.13;;;;;;;12.13;89.33;101583.78;5081629;28;20035;-79
2022/10/28 04:33:19;;;;;;;9.77;4.35;;;;;;;12.12;89.59;101577.72;5074558;28;20564;-78
2022/10/28 04:35:45;;;;;;;7.68;4.25;;;;;;;12.14;89.87;101588.13;5076524;28;20032;-78
2022/10/28 04:38:11;;;;;;;7.38;4.35;;;;;;;12.15;89.94;101587.22;5080210;28;20035;-78
2022/10/28 04:40:36;;;;;;;9.68;4.47;;;;;;;12.16;89.87;101582.88;5075622;28;20052;-78
2022/10/28 04:43:02;;;;;;;7.65;4.32;;;;;;;12.15;89.87;101584.63;5081471;28;20028;-78
2022/10/28 04:45:27;;;;;;;10.35;4.45;;;;;;;12.17;89.79;101587.22;5080745;28;20035;-79
2022/10/28 04:47:59;;;;;;;9.40;4.50;;;;;;;12.15;90.01;101584.63;5078246;28;20485;-79
2022/10/28 04:50:26;;;;;;;9.52;4.43;;;;;;;12.14;89.89;101577.69;5066770;28;20040;-79
2022/10/28 04:52:51;;;;;;;8.95;3.90;;;;;;;12.10;88.70;101576.91;5086441;28;20028;-79
2022/10/28 04:55:17;;;;;;;9.57;4.07;;;;;;;12.07;88.10;101583.94;5090925;28;20042;-79
2022/10/28 04:57:43;;;;;;;10.35;4.13;;;;;;;12.04;87.62;101577.00;5075501;28;20028;-79
2022/10/28 05:00:09;;;;;;;9.75;4.10;;;;;;;12.05;88.63;101572.66;5070951;28;20468;-78
2022/10/28 05:02:34;;;;;;;12.52;4.90;;;;;;;12.07;89.38;101581.31;5101073;28;20483;-78
2022/10/28 05:05:02;;;;;;;10.35;4.35;;;;;;;12.06;89.58;101574.38;5079311;28;20040;-78
2022/10/28 05:07:29;;;;;;;9.65;4.40;;;;;;;12.07;89.62;101578.72;5088048;28;20028;-78
2022/10/28 05:09:55;;;;;;;10.88;4.85;;;;;;;12.05;89.03;101573.50;5075947;28;20028;-79
2022/10/28 05:12:20;;;;;;;10.38;4.78;;;;;;;12.03;88.95;101574.44;5082805;28;20044;-79
2022/10/28 05:14:45;;;;;;;10.30;4.60;;;;;;;12.03;89.26;101574.44;5073203;28;20040;-79
2022/10/28 05:17:11;;;;;;;10.98;4.47;;;;;;;11.98;89.14;101570.16;5074751;28;20039;-78
2022/10/28 05:19:39;;;;;;;9.90;4.55;;;;;;;11.96;89.39;101574.53;5073979;28;20511;-78
2022/10/28 05:22:04;;;;;;;9.55;4.72;;;;;;;11.95;89.60;101577.16;5074258;28;20036;-78
2022/10/28 05:24:29;;;;;;;12.13;5.07;;;;;;;11.93;89.33;101577.22;5072519;28;20035;-78
2022/10/28 05:26:55;;;;;;;11.15;4.88;;;;;;;11.93;89.15;101571.13;5073706;28;20029;-78
2022/10/28 05:29:20;;;;;;;10.00;4.63;;;;;;;11.92;89.50;101572.88;5074347;28;20058;-78
2022/10/28 05:31:45;;;;;;;10.93;4.68;;;;;;;11.93;90.41;101560.69;5075485;28;20036;-78
2022/10/28 05:34:11;;;;;;;9.52;4.18;;;;;;;11.97;90.14;101565.81;5092239;28;20086;-78
2022/10/28 05:36:37;;;;;;;12.85;5.15;;;;;;;11.99;90.13;101564.06;5094346;28;20027;-78
2022/10/28 05:39:03;;;;;;;12.65;4.85;;;;;;;11.97;89.73;101570.19;5085898;28;20032;-78
2022/10/28 05:41:28;;;;;;;10.30;4.35;;;;;;;11.98;89.80;101561.47;5074002;28;20032;-78
2022/10/28 05:43:54;;;;;;;9.68;4.88;;;;;;;11.99;90.40;101552.78;5092511;28;20468;-78
2022/10/28 05:46:21;;;;;;;12.52;4.82;;;;;;;12.01;90.95;101555.34;5094203;28;20024;-78
2022/10/28 05:48:46;;;;;;;15.73;4.75;;;;;;;12.06;91.71;101562.19;5094180;28;20236;-79
2022/10/28 05:51:11;;;;;;;9.68;4.35;;;;;;;12.12;91.56;101564.69;5093261;28;20383;-78
2022/10/28 05:53:37;;;;;;;8.75;4.35;;;;;;;12.18;91.84;101568.06;5076941;28;20032;-78
2022/10/28 05:56:02;;;;;;;11.00;4.28;;;;;;;12.24;92.30;101566.19;5073651;28;20025;-78
2022/10/28 05:58:27;;;;;;;10.43;4.35;;;;;;;12.30;92.52;101560.81;5077442;28;20483;-78
2022/10/28 06:00:53;;;;;;;13.88;4.50;;;;;;;12.38;92.97;101560.66;5071827;28;20456;-78
2022/10/28 06:03:18;;;;;;;12.57;4.75;;;;;;;12.45;92.67;101561.41;5085962;28;20115;-78
2022/10/28 06:05:44;;;;;;;9.02;4.20;;;;;;;12.52;92.77;101567.34;5080870;28;20028;-78
2022/10/28 06:08:11;;;;;;;11.85;4.30;;;;;;;12.57;92.45;101561.13;5084711;28;20028;-78
2022/10/28 06:10:36;;;;;;;12.10;4.43;;;;;;;12.63;92.44;101562.72;5071720;28;20127;-78
2022/10/28 06:13:02;;;;;;;11.90;4.72;;;;;;;12.67;92.37;101568.72;5084118;28;20085;-78
2022/10/28 06:15:27;;;;;;;10.60;4.50;;;;;;;12.71;92.50;101573.00;5081174;28;20494;-78
2022/10/28 06:17:52;;;;;;;11.13;4.32;;;;;;;12.76;92.27;101565.91;5079526;28;20467;-79
2022/10/28 06:20:18;;;;;;;9.65;4.65;;;;;;;12.81;92.18;101565.81;5084221;28;20035;-78
2022/10/28 06:22:52;;;;;;;9.65;4.20;;;;;;;12.84;92.36;101569.19;5081765;28;20028;-78
2022/10/28 06:25:19;;;;;;;11.13;4.70;;;;;;;12.87;91.99;101574.34;5077046;28;20137;-78
2022/10/28 06:27:44;;;;;;;15.20;4.20;;;;;;;12.89;91.83;101574.34;5070093;28;20195;-78
2022/10/28 06:30:10;;;;;;;8.57;4.10;;;;;;;12.93;91.70;101575.97;5066875;28;20487;-78
2022/10/28 06:32:35;;;;;;;10.80;4.65;;;;;;;12.99;91.69;101588.00;5063970;28;20111;-78
2022/10/28 06:35:00;;;;;;;10.98;4.32;;;;;;;12.99;91.60;101583.66;5066195;28;20056;-79
2022/10/28 06:37:26;;;;;;;8.48;4.00;;;;;;;13.00;91.19;101574.06;5072499;28;20036;-78
2022/10/28 06:39:52;;;;;;;11.15;4.20;;;;;;;13.00;91.05;101579.28;5069731;28;20025;-79
2022/10/28 06:42:18;;;;;;;8.13;4.28;;;;;;;12.98;90.82;101576.72;5073037;28;20040;-79
2022/10/28 06:44:43;;;;;;;12.82;4.85;;;;;;;12.99;91.04;101574.94;5068760;28;20078;-79
2022/10/28 06:47:08;;;;;;;9.70;4.10;;;;;;;13.03;91.33;101580.09;5073173;28;20035;-79
2022/10/28 06:49:34;;;;;;;12.13;4.47;;;;;;;13.06;91.46;101579.13;5071753;28;20036;-79
2022/10/28 06:51:59;;;;;;;11.10;4.00;;;;;;;13.10;91.11;101586.00;5067680;28;20075;-79
2022/10/28 06:54:24;;;;;;;11.85;4.63;;;;;;;13.12;91.06;101572.91;5071217;28;20032;-79
2022/10/28 06:56:49;;;;;;;10.32;4.60;;;;;;;13.14;90.97;101576.34;5072847;28;20457;-79
2022/10/28 06:59:15;;;;;;;11.90;4.07;;;;;;;13.16;91.19;101570.16;5072844;28;20028;-79
2022/10/28 07:01:40;;;;;;;12.70;4.60;;;;;;;13.19;91.12;101577.09;5086968;28;20048;-79
2022/10/28 07:04:05;;;;;;;9.02;4.10;;;;;;;13.21;90.96;101573.53;5082833;28;20104;-79
2022/10/28 07:06:31;;;;;;;10.10;4.28;;;;;;;13.24;91.08;101577.81;5077466;28;20028;-79
2022/10/28 07:08:56;;;;;;;11.27;4.50;;;;;;;13.28;91.09;101573.38;5092708;28;20413;-78
2022/10/28 07:11:21;;;;;;;10.75;4.35;;;;;;;13.29;90.88;101575.94;5083751;28;20049;-78
2022/10/28 07:13:46;;;;;;;11.32;4.63;;;;;;;13.33;90.96;101574.09;5085550;28;20028;-78
2022/10/28 07:16:12;;;;;;;12.68;4.75;;;;;;;13.35;91.02;101580.16;5077018;28;20438;-79
2022/10/28 07:18:37;;;;;;;12.23;4.45;;;;;;;13.39;90.90;101579.19;5077531;28;20034;-79
2022/10/28 07:21:02;;;;;;;15.00;4.47;;;;;;;13.43;91.02;101573.03;5089000;28;20059;-78
2022/10/28 07:23:31;;;;;;;12.57;4.00;;;;;;;13.48;91.13;101581.63;5079314;28;20032;-79
2022/10/28 07:25:56;;;;;;;12.77;4.55;;;;;;;13.54;91.22;101577.09;5089585;28;20034;-79
2022/10/28 07:28:24;;;;;;;16.10;4.97;;;;;;;13.60;91.18;101576.94;5084586;28;20020;-79
2022/10/28 07:30:49;;;;;;;12.18;4.82;;;;;;;13.67;91.15;101586.31;5089897;28;20391;-78
2022/10/28 07:33:14;;;;;;;10.95;4.55;;;;;;;13.75;91.16;101587.00;5092691;28;20471;-78
2022/10/28 07:35:40;;;;;;;11.70;5.00;;;;;;;13.81;91.33;101589.44;5094128;28;20032;-78
2022/10/28 07:38:05;;;;;;;11.13;5.18;;;;;;;13.89;90.98;101590.97;5075997;28;20028;-78
2022/10/28 07:40:31;;;;;;;13.02;5.15;;;;;;;13.98;91.21;101592.47;5079756;28;20025;-78
2022/10/28 07:42:57;;;;;;;12.32;4.82;;;;;;;14.05;90.75;101592.25;5085245;28;20032;-79
2022/10/28 07:45:23;;;;;;;14.02;5.05;;;;;;;14.14;90.72;101595.53;5091937;28;20039;-79
2022/10/28 07:47:49;;;;;;;11.48;4.80;;;;;;;14.21;90.78;101594.44;5075470;28;20067;-79
2022/10/28 07:50:14;;;;;;;10.77;4.70;;;;;;;14.29;90.32;101589.84;5077464;28;20443;-79
2022/10/28 07:52:40;;;;;;;13.18;5.40;;;;;;;14.37;90.30;101595.72;5089860;28;20028;-79
2022/10/28 07:55:06;;;;;;;12.73;5.03;;;;;;;14.47;89.78;101590.22;5083668;28;20039;-79
2022/10/28 07:57:33;;;;;;;11.98;4.82;;;;;;;14.58;89.86;101582.88;5082977;28;20464;-78
2022/10/28 07:59:58;;;;;;;12.65;5.10;;;;;;;14.67;89.26;101582.63;5086483;28;20036;-78
2022/10/28 08:02:24;;;;;;;13.48;5.15;;;;;;;14.75;88.94;101571.94;5088019;28;20036;-78
2022/10/28 08:04:50;;;;;;;13.55;4.82;;;;;;;14.82;88.52;101572.59;5074564;28;20035;-79
2022/10/28 08:07:15;;;;;;;9.15;5.20;;;;;;;14.89;88.83;101568.84;5075822;28;20452;-79
2022/10/28 08:09:41;;;;;;;11.43;5.35;;;;;;;14.97;88.24;101566.84;5081999;28;20028;-79
2022/10/28 08:12:07;;;;;;;10.38;4.70;;;;;;;15.06;88.27;101575.31;5074828;28;20052;-78
2022/10/28 08:14:32;;;;;;;10.45;4.65;;;;;;;15.13;87.74;101568.97;5075644;28;20032;-78
2022/10/28 08:16:58;;;;;;;12.07;5.18;;;;;;;15.22;88.00;101575.66;5075560;28;20041;-78
2022/10/28 08:19:23;;;;;;;12.23;4.75;;;;;;;15.30;86.92;101579.75;5076723;28;20096;-78
2022/10/28 08:21:48;;;;;;;14.98;4.95;;;;;;;15.44;86.75;101567.91;5074332;28;20403;-78
2022/10/28 08:24:13;;;;;;;14.15;5.40;;;;;;;15.54;86.06;101573.69;5075750;28;20028;-78
2022/10/28 08:26:39;;;;;;;11.88;4.68;;;;;;;15.63;85.77;101582.09;5079162;28;20032;-78
2022/10/28 08:29:04;;;;;;;10.18;4.82;;;;;;;15.71;85.30;101588.84;5074483;28;20373;-78
2022/10/28 08:31:32;;;;;;;9.77;4.80;;;;;;;15.78;85.19;101595.59;5075336;28;20032;-78
2022/10/28 08:33:57;;;;;;;11.27;4.82;;;;;;;15.85;85.42;101610.25;5074807;28;20063;-78
2022/10/28 08:36:22;;;;;;;11.90;5.00;;;;;;;15.91;84.47;101599.50;5086459;28;20070;-78
2022/10/28 08:38:47;;;;;;;13.05;4.90;;;;;;;15.97;85.01;101600.22;5075191;28;20100;-78
2022/10/28 08:41:31;;;;;;;11.45;4.28;;;;;;;16.00;84.11;101594.84;5075303;28;20387;-78
2022/10/28 08:44:21;;;;;;;12.38;5.03;;;;;;;16.04;84.25;101591.22;5076231;28;20047;-78
2022/10/28 08:47:10;;;;;;;11.60;4.68;;;;;;;16.07;83.58;101588.44;5078677;28;20077;-79
2022/10/28 08:49:39;;;;;;;10.57;4.40;;;;;;;16.11;83.68;101595.31;5074467;28;20067;-78
2022/10/28 08:52:13;;;;;;;10.68;4.10;;;;;;;16.19;83.17;101593.25;5073532;28;20025;-78
2022/10/28 08:54:53;;;;;;;10.45;4.70;;;;;;;16.27;83.44;101590.34;5061483;28;20060;-78
2022/10/28 08:57:32;;;;;;;9.82;4.40;;;;;;;16.36;83.71;101591.78;5068173;28;20058;-78
2022/10/28 08:59:58;;;;;;;10.98;4.40;;;;;;;16.43;82.71;101582.72;5072993;28;20029;-78
2022/10/28 09:02:27;;;;;;;11.65;4.60;;;;;;;16.51;82.70;101583.28;5075155;28;20054;-78
2022/10/28 09:05:19;;;;;;;10.02;4.22;;;;;;;16.60;83.38;101579.47;5082991;28;20028;-78
2022/10/28 09:07:44;;;;;;;12.98;4.20;;;;;;;16.67;83.29;101582.69;5080179;28;20040;-79
2022/10/28 09:10:14;;;;;;;11.90;4.47;;;;;;;16.74;82.47;101585.94;5079956;28;20051;-78
2022/10/28 09:13:26;;;;;;;12.43;4.10;;;;;;;16.80;82.67;101593.59;5076810;28;20505;-79
2022/10/28 09:16:13;;;;;;;10.93;4.45;;;;;;;16.86;81.91;101589.84;5054107;28;20120;-78
2022/10/28 09:18:55;;;;;;;9.43;4.07;;;;;;;16.89;81.75;101601.09;5073365;28;20066;-78
2022/10/28 09:21:31;;;;;;;9.27;3.97;;;;;;;16.95;81.98;101597.38;5074076;28;20029;-78
2022/10/28 09:24:06;;;;;;;8.75;4.03;;;;;;;16.98;81.26;101599.88;5073855;28;20206;-78
2022/10/28 09:26:34;;;;;;;10.00;3.78;;;;;;;17.04;81.04;101604.91;5071343;28;20031;-78
2022/10/28 09:29:26;;;;;;;9.70;4.05;;;;;;;17.10;82.13;101607.25;5077544;28;20029;-78
2022/10/28 09:32:08;;;;;;;10.65;3.60;;;;;;;17.18;81.38;101606.09;5071628;28;20028;-78
2022/10/28 09:34:45;;;;;;;12.63;3.80;;;;;;;17.28;82.61;101604.78;5072093;28;20025;-78
2022/10/28 09:37:19;;;;;;;14.13;4.13;;;;;;;17.38;81.82;101605.25;5074356;28;20036;-78
2022/10/28 09:39:49;;;;;;;12.02;4.22;;;;;;;17.48;81.19;101608.34;5075963;28;20056;-78
2022/10/28 09:42:21;;;;;;;10.23;4.00;;;;;;;17.56;79.71;101612.38;5072301;28;20056;-78
2022/10/28 09:44:55;;;;;;;8.77;4.13;;;;;;;17.65;79.73;101607.66;5072103;28;20035;-78
2022/10/28 09:47:29;;;;;;;10.50;3.83;;;;;;;17.70;79.43;101601.25;5072166;28;20032;-78
2022/10/28 09:49:57;;;;;;;8.70;3.90;;;;;;;17.72;78.73;101617.84;5071457;28;20039;-78
2022/10/28 09:52:33;;;;;;;11.57;4.25;;;;;;;17.71;79.28;101608.22;5078740;28;20089;-78
2022/10/28 09:55:05;;;;;;;11.13;3.97;;;;;;;17.72;78.90;101607.31;5072870;28;20127;-78
2022/10/28 09:57:31;;;;;;;8.55;3.80;;;;;;;17.74;78.69;101604.59;5073538;28;20089;-78
2022/10/28 09:59:58;;;;;;;11.68;4.22;;;;;;;17.79;79.88;101604.41;5069299;28;20028;-78
2022/10/28 10:02:29;;;;;;;10.68;3.70;;;;;;;17.85;79.69;101606.75;5068228;28;20553;-78
2022/10/28 10:04:59;;;;;;;;;;;;;;;17.89;80.27;101614.44;5070141;28;20032;-78
2022/10/28 10:07:36;;;;;;;10.50;3.78;;;;;;;17.94;79.32;101616.88;5072466;28;19920;-78
2022/10/28 10:10:11;;;;;;;8.93;3.45;;;;;;;18.00;79.43;101613.16;5071804;28;20020;-78
2022/10/28 10:12:37;;;;;;;6.78;3.63;;;;;;;18.09;79.44;101614.53;5075550;28;20419;-78
2022/10/28 10:15:06;;;;;;;12.23;4.03;;;;;;;18.14;78.46;101615.16;5074123;28;20035;-78
2022/10/28 10:17:39;;;;;;;8.82;3.70;;;;;;;18.21;79.31;101611.34;5071347;28;20032;-78
2022/10/28 10:20:13;;;;;;;8.63;3.85;;;;;;;18.29;79.68;101609.19;5072482;28;20028;-78
2022/10/28 10:22:43;;;;;;;11.02;3.70;;;;;;;18.35;79.41;101601.00;5072852;28;20036;-78
2022/10/28 10:25:17;;;;;;;12.57;4.00;;;;;;;18.44;78.37;101604.16;5068473;28;20043;-78
2022/10/28 10:27:56;;;;;;;9.00;3.78;;;;;;;18.52;78.15;101607.28;5069872;28;20097;-78
2022/10/28 10:30:36;;;;;;;9.68;3.70;;;;;;;18.57;76.70;101602.66;5068709;28;20023;-79
2022/10/28 10:33:02;;;;;;;13.40;3.90;;;;;;;18.62;76.01;101608.53;5066875;28;20472;-78
2022/10/28 10:35:30;;;;;;;9.15;4.05;;;;;;;18.69;75.84;101602.97;5068086;28;20034;-78
2022/10/28 10:37:59;;;;;;;8.98;3.60;;;;;;;18.75;75.76;101600.06;5066352;28;20031;-79
2022/10/28 10:40:30;;;;;;;10.55;3.80;;;;;;;18.82;76.99;101604.09;5067304;28;20047;-78
2022/10/28 10:43:18;;;;;;;12.98;4.00;;;;;;;18.90;76.74;101599.31;5067595;28;20034;-79
2022/10/28 10:45:57;;;;;;;11.38;3.65;;;;;;;18.94;75.54;101598.28;5069470;28;20036;-79
2022/10/28 10:48:23;;;;;;;10.40;3.72;;;;;;;19.01;74.51;101596.19;5071160;28;20039;-79
2022/10/28 10:50:49;;;;;;;11.32;3.40;;;;;;;19.06;74.67;101590.69;5070694;28;20028;-80
2022/10/28 10:53:26;;;;;;;13.70;3.60;;;;;;;19.11;74.56;101589.50;5072325;28;20028;-79
2022/10/28 10:56:01;;;;;;;10.27;3.97;;;;;;;19.18;74.16;101586.56;5079445;28;20487;-78
2022/10/28 10:58:33;;;;;;;10.90;3.60;;;;;;;19.27;74.46;101583.47;5074472;28;20036;-78
2022/10/28 11:01:03;;;;;;;10.45;3.33;;;;;;;19.34;73.89;101584.00;5065692;28;20028;-79
2022/10/28 11:03:35;;;;;;;11.57;3.75;;;;;;;19.40;72.46;101579.25;5070819;28;20038;-83
2022/10/28 11:06:02;;;;;;;14.82;3.15;;;;;;;19.45;71.83;101581.69;5067555;28;20028;-80
2022/10/28 11:08:42;;;;;;;10.65;3.17;;;;;;;19.51;72.12;101570.78;5075877;28;20024;-79
2022/10/28 11:11:29;;;;;;;10.18;3.40;;;;;;;19.60;72.03;101569.47;5071333;28;21500;-79
2022/10/28 11:14:05;;;;;;;8.13;2.97;;;;;;;19.66;70.12;101566.50;5072375;28;20035;-79
2022/10/28 11:16:31;;;;;;;12.02;3.45;;;;;;;19.76;68.87;101569.53;5071985;28;20064;-78
2022/10/28 11:18:56;;;;;;;9.02;3.00;;;;;;;19.84;68.04;101587.59;5072393;28;20055;-78
2022/10/28 11:21:34;;;;;;;13.48;3.20;;;;;;;19.95;69.68;101594.97;5073076;28;20024;-79
2022/10/28 11:24:11;;;;;;;8.32;3.35;;;;;;;20.02;66.75;101585.78;5070942;28;20063;-78
2022/10/28 11:26:43;;;;;;;11.95;3.15;;;;;;;20.09;65.53;101575.72;5071955;28;20028;-78
2022/10/28 11:29:12;;;;;;;8.05;2.90;;;;;;;20.12;66.12;101560.59;5067476;28;20043;-78
2022/10/28 11:31:49;;;;;;;8.57;2.70;;;;;;;20.16;67.26;101550.69;5068489;28;20028;-78
2022/10/28 11:34:26;;;;;;;8.85;3.10;;;;;;;20.15;65.75;101544.53;5070976;28;20384;-78
2022/10/28 11:37:13;;;;;;;13.48;3.17;;;;;;;20.17;66.88;101550.59;5073744;28;20028;-78